METAR AND TAF INFORMATION
METAR FOR SBKP
ADDS - METARS form results

(0616 UTC 27 April 2018)
Data provider http://aviationweather.gov/adds/metars/
 
METAR text: SBKP 270600Z 13011KT CAVOK 19/17 Q1018
Conditions at: SBKP (CAMPINAS/VIRACOP, BR) observed 0600 UTC 27 April 2018
Temperature: 19.0°C (66°F)
Dewpoint: 17.0°C (63°F) [RH = 88%]
Pressure (altimeter): 30.06 inches Hg (1018.0 mb)
Winds: from the SE (130 degrees) at 13 MPH (11 knots; 5.7 m/s)
Visibility: 6 or more miles (10+ km)
Ceiling: ceiling and visibility are OK
Clouds: unknown
Weather: no significant weather observed at this time

Forecast for: SBKP (CAMPINAS/VIRACOP, BR)
Text: TAF SBKP 270200Z 2706/2806 12010KT CAVOK TN18/2709Z TX30/2717Z
Forecast period: 0600 to 1300 UTC 27 April 2018
Forecast type: FROM: standard forecast or significant change
Winds: from the ESE (120 degrees) at 12 MPH (10 knots; 5.2 m/s)
Visibility: 6 or more miles (10+ km)
Clouds: not forecast
Weather: no significant weather forecast for this period
Forecast for: SBKP (CAMPINAS/VIRACOP, BR)
Text: TAF SBKP 270200Z 2706/2806 12010KT CAVOK TN18/2709Z TX30/2717Z
Forecast period: 0600 to 1300 UTC 27 April 2018
Forecast type: FROM: standard forecast or significant change
Winds: from the ESE (120 degrees) at 12 MPH (10 knots; 5.2 m/s)
Visibility: 6 or more miles (10+ km)
Clouds: not forecast
Weather: no significant weather forecast for this period
Forecast for: SBKP (CAMPINAS/VIRACOP, BR)
Text: TAF SBKP 270200Z 2706/2806 12010KT CAVOK TN18/2709Z TX30/2717Z
Forecast period: 1300 to 2000 UTC 27 April 2018
Forecast type: BECOMING: Conditions expected to become as follows by 1500 UTC 27 April 2018
Winds: from the ENE (60 degrees) at 3 MPH (3 knots; 1.6 m/s)
Visibility: 6 or more miles (10+ km)
Clouds: few clouds at 4000 feet AGL
Weather: no significant weather forecast for this period
Forecast for: SBKP (CAMPINAS/VIRACOP, BR)
Text: TAF SBKP 270200Z 2706/2806 12010KT CAVOK TN18/2709Z TX30/2717Z
Forecast period: 1300 to 2000 UTC 27 April 2018
Forecast type: BECOMING: Conditions expected to become as follows by 1500 UTC 27 April 2018
Winds: from the ENE (60 degrees) at 3 MPH (3 knots; 1.6 m/s)
Visibility: 6 or more miles (10+ km)
Clouds: few clouds at 4000 feet AGL
Weather: no significant weather forecast for this period
Forecast for: SBKP (CAMPINAS/VIRACOP, BR)
Text: TAF SBKP 270200Z 2706/2806 12010KT CAVOK TN18/2709Z TX30/2717Z
Forecast period: 1600 to 1800 UTC 27 April 2018
Forecast type: PROBABLE: 40 percent likelihood of the following during this time
Winds: from the SW (230 degrees) at 6 MPH (5 knots; 2.6 m/s)
Clouds: scattered clouds at 4000 feet AGL
Weather: no significant weather forecast for this period
Forecast for: SBKP (CAMPINAS/VIRACOP, BR)
Text: TAF SBKP 270200Z 2706/2806 12010KT CAVOK TN18/2709Z TX30/2717Z
Forecast period: 1600 to 1800 UTC 27 April 2018
Forecast type: PROBABLE: 40 percent likelihood of the following during this time
Winds: from the SW (230 degrees) at 6 MPH (5 knots; 2.6 m/s)
Clouds: scattered clouds at 4000 feet AGL
Weather: no significant weather forecast for this period
Forecast for: SBKP (CAMPINAS/VIRACOP, BR)
Text: TAF SBKP 270200Z 2706/2806 12010KT CAVOK TN18/2709Z TX30/2717Z
Forecast period: 2000 UTC 27 April 2018 to 0600 UTC 28 April 2018
Forecast type: BECOMING: Conditions expected to become as follows by 2200 UTC 27 April 2018
Winds: from the SE (130 degrees) at 12 MPH (10 knots; 5.2 m/s)
Visibility: 6 or more miles (10+ km)
Weather: NSW  (no significant weather)
Forecast for: SBKP (CAMPINAS/VIRACOP, BR)
Text: TAF SBKP 270200Z 2706/2806 12010KT CAVOK TN18/2709Z TX30/2717Z
Forecast period: 2000 UTC 27 April 2018 to 0600 UTC 28 April 2018
Forecast type: BECOMING: Conditions expected to become as follows by 2200 UTC 27 April 2018
Winds: from the SE (130 degrees) at 12 MPH (10 knots; 5.2 m/s)
Visibility: 6 or more miles (10+ km)
Weather: NSW  (no significant weather)
Forecast for: SBKP (CAMPINAS/VIRACOP, BR)
Text: TAF SBKP 270200Z 2706/2806 12010KT CAVOK TN18/2709Z TX30/2717Z
Forecast period: 0200 to 0600 UTC 28 April 2018
Forecast type: PROBABLE: 40 percent likelihood of the following during this time
Winds: from the ESE (120 degrees) at 17 MPH (15 knots; 7.8 m/s)
Weather: no significant weather forecast for this period
Forecast for: SBKP (CAMPINAS/VIRACOP, BR)
Text: TAF SBKP 270200Z 2706/2806 12010KT CAVOK TN18/2709Z TX30/2717Z
Forecast period: 0200 to 0600 UTC 28 April 2018
Forecast type: PROBABLE: 40 percent likelihood of the following during this time
Winds: from the ESE (120 degrees) at 17 MPH (15 knots; 7.8 m/s)
Weather: no significant weather forecast for this period

 AIRPORT MAP

 RUNWAY INFORMATION
Runway 15 Runway length 10630 ft Runway width 148 ft
Runway elevation 2139 ft Runway displaced threshold 0 ft Runway heading 128
Runway 33 Runway length 10630 ft Runway width 148 ft
Runway elevation 2170 ft Runway displaced threshold 0 ft Runway heading 308

 AIRPORT FREQUENCIES
Type APP Name CAMPINAS A Frequency 121.4 MHZ
Type GND Name GND Frequency 121.9 MHZ
Type TWR Name CAMPINAS T Frequency 118.25 MHZ

 AIRPORT NEAR NAVIGATION AIDS
Type VOR-DME Name Campinas Frequency 112000 KHZ
Type NDB Name Grama Frequency 395 KHZ